createdAt,value
2023-04-29T00:02:14.596Z,96373.06
2023-04-29T00:04:41.274Z,96378.19
2023-04-29T00:07:08.991Z,96369.66
2023-04-29T00:09:36.268Z,96384.13
2023-04-29T00:12:02.802Z,96373.91
2023-04-29T00:14:29.269Z,96373.06
2023-04-29T00:16:55.704Z,96368.81
2023-04-29T00:19:22.127Z,96364.53
2023-04-29T00:21:48.857Z,96360.25
2023-04-29T00:24:15.490Z,96355.16
2023-04-29T00:26:42.257Z,96356.00
2023-04-29T00:29:08.640Z,96354.28
2023-04-29T00:31:35.197Z,96359.41
2023-04-29T00:34:01.801Z,96362.84
2023-04-29T00:36:28.416Z,96367.09
2023-04-29T00:38:55.124Z,96363.69
2023-04-29T00:41:21.561Z,96352.63
2023-04-29T00:43:47.936Z,96354.31
2023-04-29T00:46:14.353Z,96346.63
2023-04-29T00:48:41.448Z,96344.91
2023-04-29T00:51:08.525Z,96344.09
2023-04-29T00:53:35.597Z,96344.06
2023-04-29T00:56:02.755Z,96338.97
2023-04-29T00:58:35.185Z,96355.19
2023-04-29T01:01:03.794Z,96354.34
2023-04-29T01:03:31.681Z,96351.78
2023-04-29T01:06:29.059Z,96363.72
2023-04-29T01:09:21.716Z,96357.75
2023-04-29T01:12:17.438Z,96350.09
2023-04-29T01:14:51.629Z,96350.94
2023-04-29T01:17:24.572Z,96347.53
2023-04-29T01:19:55.887Z,96345.81
2023-04-29T01:22:22.936Z,96353.47
2023-04-29T01:24:50.057Z,96355.19
2023-04-29T01:27:32.994Z,96348.34
2023-04-29T01:30:09.592Z,96350.91
2023-04-29T01:32:46.709Z,96364.56
2023-04-29T01:35:32.031Z,96350.03
2023-04-29T01:38:11.579Z,96348.34
2023-04-29T01:40:47.629Z,96342.38
2023-04-29T01:43:15.689Z,96348.34
2023-04-29T01:45:44.088Z,96331.25
2023-04-29T01:48:11.391Z,96341.53
2023-04-29T01:50:37.772Z,96340.66
2023-04-29T01:53:04.219Z,96340.66
2023-04-29T01:55:30.756Z,96344.06
2023-04-29T01:57:57.230Z,96338.97
2023-04-29T02:00:23.741Z,96344.09
2023-04-29T02:02:50.514Z,96349.19
2023-04-29T02:05:17.294Z,96348.38
2023-04-29T02:07:44.684Z,96344.94
2023-04-29T02:10:11.947Z,96353.50
2023-04-29T02:12:38.397Z,96362.88
2023-04-29T02:15:05.456Z,96371.41
2023-04-29T02:17:33.947Z,96363.75
2023-04-29T02:20:00.346Z,96367.16
2023-04-29T02:22:26.768Z,96356.91
2023-04-29T02:24:53.137Z,96362.00
2023-04-29T02:27:19.595Z,96362.84
2023-04-29T02:29:46.022Z,96357.72
2023-04-29T02:32:15.214Z,96353.47
2023-04-29T02:34:41.670Z,96362.00
2023-04-29T02:37:08.043Z,96353.47
2023-04-29T02:39:34.548Z,96348.31
2023-04-29T02:42:01.706Z,96347.50
2023-04-29T02:44:28.104Z,96349.19
2023-04-29T02:46:54.483Z,96346.63
2023-04-29T02:49:21.369Z,96336.38
2023-04-29T02:51:49.815Z,96350.91
2023-04-29T02:54:16.930Z,96354.31
2023-04-29T02:56:44.145Z,96343.22
2023-04-29T02:59:10.969Z,96340.66
2023-04-29T03:01:38.924Z,96337.22
2023-04-29T03:04:06.812Z,96341.50
2023-04-29T03:06:33.371Z,96344.94
2023-04-29T03:08:59.812Z,96347.50
2023-04-29T03:11:26.238Z,96344.94
2023-04-29T03:13:52.681Z,96343.22
2023-04-29T03:16:19.195Z,96343.22
2023-04-29T03:18:45.998Z,96343.22
2023-04-29T03:21:12.426Z,96343.22
2023-04-29T03:23:40.098Z,96349.19
2023-04-29T03:26:06.707Z,96342.38
2023-04-29T03:28:33.234Z,96337.25
2023-04-29T03:31:00.431Z,96348.34
2023-04-29T03:33:26.966Z,96344.09
2023-04-29T03:35:53.496Z,96344.94
2023-04-29T03:38:20.138Z,96345.81
2023-04-29T03:40:46.784Z,96338.97
2023-04-29T03:43:14.065Z,96352.63
2023-04-29T03:45:40.576Z,96350.91
2023-04-29T03:48:08.089Z,96356.94
2023-04-29T03:50:36.500Z,96362.03
2023-04-29T03:53:03.332Z,96348.38
2023-04-29T03:55:29.733Z,96360.34
2023-04-29T03:57:56.129Z,96350.09
2023-04-29T04:00:22.797Z,96344.97
2023-04-29T04:02:49.449Z,96348.38
2023-04-29T04:05:16.535Z,96346.66
2023-04-29T04:07:42.934Z,96351.81
2023-04-29T04:10:09.692Z,96355.22
2023-04-29T04:12:36.121Z,96349.28
2023-04-29T04:15:04.008Z,96353.56
2023-04-29T04:17:30.531Z,96359.53
2023-04-29T04:19:56.945Z,96364.66
2023-04-29T04:22:23.409Z,96366.38
2023-04-29T04:24:49.817Z,96366.34
2023-04-29T04:27:16.150Z,96361.22
2023-04-29T04:29:42.818Z,96354.41
2023-04-29T04:32:09.302Z,96358.66
2023-04-29T04:34:36.009Z,96360.38
2023-04-29T04:37:02.536Z,96371.47
2023-04-29T04:39:28.940Z,96374.88
2023-04-29T04:41:55.322Z,96372.34
2023-04-29T04:44:21.767Z,96370.63
2023-04-29T04:46:48.199Z,96374.91
2023-04-29T04:49:14.731Z,96372.34
2023-04-29T04:51:45.315Z,96378.31
2023-04-29T04:54:12.220Z,96379.16
2023-04-29T04:56:38.627Z,96380.00
2023-04-29T04:59:05.045Z,96376.59
2023-04-29T05:01:31.508Z,96378.31
2023-04-29T05:03:58.258Z,96374.03
2023-04-29T05:06:24.682Z,96382.56
2023-04-29T05:08:51.298Z,96374.03
2023-04-29T05:11:21.894Z,96376.59
2023-04-29T05:13:48.588Z,96381.69
2023-04-29T05:16:15.452Z,96381.72
2023-04-29T05:18:44.877Z,96385.97
2023-04-29T05:21:12.369Z,96388.53
2023-04-29T05:23:38.883Z,96383.41
2023-04-29T05:26:05.461Z,96392.78
2023-04-29T05:28:31.967Z,96396.19
2023-04-29T05:30:58.415Z,96392.75
2023-04-29T05:33:24.867Z,96397.03
2023-04-29T05:35:51.324Z,96397.88
2023-04-29T05:38:17.751Z,96400.38
2023-04-29T05:40:44.492Z,96399.50
2023-04-29T05:43:11.333Z,96406.25
2023-04-29T05:45:37.732Z,96397.63
2023-04-29T05:48:04.926Z,96402.72
2023-04-29T05:50:31.582Z,96411.22
2023-04-29T05:52:58.130Z,96414.59
2023-04-29T05:55:25.008Z,96413.56
2023-04-29T05:57:51.357Z,96420.34
2023-04-29T06:00:18.136Z,96419.47
2023-04-29T06:02:57.349Z,96423.66
2023-04-29T06:05:25.255Z,96429.66
2023-04-29T06:07:52.288Z,96423.66
2023-04-29T06:10:19.210Z,96436.44
2023-04-29T06:12:46.782Z,96431.22
2023-04-29T06:15:13.463Z,96432.13
2023-04-29T06:17:40.214Z,96430.47
2023-04-29T06:20:07.361Z,96432.16
2023-04-29T06:22:34.016Z,96437.31
2023-04-29T06:25:00.866Z,96445.88
2023-04-29T06:27:28.201Z,96440.66
2023-04-29T06:29:54.850Z,96454.25
2023-04-29T06:32:21.479Z,96450.81
2023-04-29T06:34:48.125Z,96457.50
2023-04-29T06:37:14.529Z,96449.75
2023-04-29T06:39:41.014Z,96450.53
2023-04-29T06:42:07.528Z,96447.00
2023-04-29T06:44:33.992Z,96445.97
2023-04-29T06:47:00.662Z,96446.72
2023-04-29T06:49:27.131Z,96443.97
2023-04-29T06:51:53.725Z,96454.09
2023-04-29T06:54:20.082Z,96451.34
2023-04-29T06:56:47.143Z,96453.97
2023-04-29T06:59:15.140Z,96452.16
2023-04-29T07:01:44.702Z,96458.03
2023-04-29T07:04:12.648Z,96459.47
2023-04-29T07:06:39.408Z,96458.44
2023-04-29T07:09:05.971Z,96463.56
2023-04-29T07:11:32.510Z,96463.44
2023-04-29T07:13:58.877Z,96475.28
2023-04-29T07:16:26.663Z,96470.69
2023-04-29T07:18:53.270Z,96475.78
2023-04-29T07:21:22.071Z,96475.78
2023-04-29T07:23:48.446Z,96475.94
2023-04-29T07:26:17.119Z,96476.81
2023-04-29T07:28:44.914Z,96472.34
2023-04-29T07:31:14.365Z,96476.44
2023-04-29T07:33:41.030Z,96475.41
2023-04-29T07:36:07.702Z,96479.69
2023-04-29T07:38:34.726Z,96481.22
2023-04-29T07:41:01.238Z,96480.34
2023-04-29T07:43:27.590Z,96483.69
2023-04-29T07:45:54.091Z,96481.00
2023-04-29T07:48:21.345Z,96484.41
2023-04-29T07:50:47.748Z,96481.78
2023-04-29T07:53:15.986Z,96479.19
2023-04-29T07:55:42.516Z,96490.34
2023-04-29T07:58:08.948Z,96492.13
2023-04-29T08:00:35.400Z,96494.84
2023-04-29T08:03:02.263Z,96499.28
2023-04-29T08:05:30.637Z,96502.63
2023-04-29T08:07:57.287Z,96500.78
2023-04-29T08:10:23.676Z,96505.91
2023-04-29T08:12:50.472Z,96500.94
2023-04-29T08:15:18.441Z,96501.56
2023-04-29T08:17:45.009Z,96489.34
2023-04-29T08:20:12.090Z,96501.81
2023-04-29T08:22:38.795Z,96500.78
2023-04-29T08:25:05.852Z,96503.38
2023-04-29T08:27:32.372Z,96495.16
2023-04-29T08:29:59.218Z,96494.22
2023-04-29T08:32:25.917Z,96494.88
2023-04-29T08:34:52.889Z,96491.72
2023-04-29T08:37:20.607Z,96504.00
2023-04-29T08:39:47.860Z,96505.56
2023-04-29T08:42:14.412Z,96495.88
2023-04-29T08:44:41.385Z,96496.75
2023-04-29T08:47:09.112Z,96500.53
2023-04-29T08:49:38.039Z,96501.19
2023-04-29T08:52:04.795Z,96508.09
2023-04-29T08:54:32.376Z,96503.22
2023-04-29T08:57:00.491Z,96503.44
2023-04-29T08:59:28.855Z,96501.19
2023-04-29T09:01:57.467Z,96516.59
2023-04-29T09:04:41.835Z,96521.00
2023-04-29T09:07:10.826Z,96516.72
2023-04-29T09:09:39.239Z,96516.69
2023-04-29T09:12:05.937Z,96512.47
2023-04-29T09:14:35.978Z,96514.28
2023-04-29T09:17:02.460Z,96514.31
2023-04-29T09:19:34.033Z,96516.00
2023-04-29T09:22:07.185Z,96512.06
2023-04-29T09:24:33.799Z,96507.56
2023-04-29T09:27:00.360Z,96510.56
2023-04-29T09:29:26.953Z,96494.94
2023-04-29T09:31:53.638Z,96498.63
2023-04-29T09:34:41.271Z,96506.88
2023-04-29T09:37:24.921Z,96503.31
2023-04-29T09:39:51.519Z,96502.63
2023-04-29T09:42:18.041Z,96497.47
2023-04-29T09:44:45.192Z,96507.50
2023-04-29T09:47:13.210Z,96511.31
2023-04-29T09:49:42.401Z,96511.16
2023-04-29T09:52:11.085Z,96521.66
2023-04-29T09:54:39.064Z,96526.19
2023-04-29T09:57:07.470Z,96527.25
2023-04-29T09:59:36.090Z,96517.91
2023-04-29T10:02:10.298Z,96530.59
2023-04-29T10:04:40.297Z,96523.00
2023-04-29T10:07:08.534Z,96529.75
2023-04-29T10:09:37.989Z,96534.09
2023-04-29T10:12:07.349Z,96541.31
2023-04-29T10:14:42.952Z,96539.72
2023-04-29T10:17:23.041Z,96546.91
2023-04-29T10:19:59.270Z,96552.41
2023-04-29T10:22:49.021Z,96556.91
2023-04-29T10:25:18.449Z,96556.09
2023-04-29T10:27:45.909Z,96557.25
2023-04-29T10:30:14.196Z,96562.50
2023-04-29T10:35:19.962Z,96558.09
2023-04-29T10:37:48.513Z,96546.91
2023-04-29T10:40:29.049Z,96551.41
2023-04-29T10:42:55.749Z,96551.41
2023-04-29T10:45:32.763Z,96550.34
2023-04-29T10:48:09.304Z,96551.28
2023-04-29T10:50:42.393Z,96555.31
2023-04-29T10:53:09.069Z,96544.66
2023-04-29T10:55:38.699Z,96542.75
2023-04-29T10:58:05.916Z,96539.19
2023-04-29T11:00:34.855Z,96531.19
2023-04-29T11:03:02.626Z,96528.69
2023-04-29T11:05:36.337Z,96530.06
2023-04-29T11:08:13.724Z,96532.81
2023-04-29T11:10:44.035Z,96526.47
2023-04-29T11:13:28.539Z,96531.97
2023-04-29T11:16:09.231Z,96538.38
2023-04-29T11:18:37.621Z,96537.63
2023-04-29T11:21:07.039Z,96535.16
2023-04-29T11:23:45.495Z,96540.66
2023-04-29T11:26:11.990Z,96539.94
2023-04-29T11:28:42.510Z,96544.09
2023-04-29T11:31:09.056Z,96541.97
2023-04-29T11:33:35.699Z,96543.22
2023-04-29T11:36:03.520Z,96534.59
2023-04-29T11:38:31.097Z,96535.59
2023-04-29T11:40:58.247Z,96535.50
2023-04-29T11:43:25.186Z,96541.72
2023-04-29T11:45:53.268Z,96542.63
2023-04-29T11:48:25.034Z,96545.25
2023-04-29T11:50:55.016Z,96548.03
2023-04-29T11:53:24.736Z,96544.81
2023-04-29T11:55:55.251Z,96548.25
2023-04-29T11:58:25.202Z,96562.09
2023-04-29T12:00:54.521Z,96562.53
2023-04-29T12:03:21.806Z,96566.06
2023-04-29T12:05:53.370Z,96575.84
2023-04-29T12:08:30.159Z,96567.47
2023-04-29T12:10:58.502Z,96584.19
2023-04-29T12:13:29.065Z,96585.13
2023-04-29T12:15:56.250Z,96582.00
2023-04-29T12:18:23.460Z,96584.59
2023-04-29T12:20:54.659Z,96583.91
2023-04-29T12:23:23.177Z,96589.06
2023-04-29T12:25:51.804Z,96582.06
2023-04-29T12:28:19.829Z,96584.56
2023-04-29T12:30:52.800Z,96583.44
2023-04-29T12:33:27.190Z,96578.78
2023-04-29T12:35:56.974Z,96574.13
2023-04-29T12:38:27.569Z,96573.72
2023-04-29T12:41:04.430Z,96563.91
2023-04-29T12:43:33.678Z,96579.19
2023-04-29T12:46:04.423Z,96563.59
2023-04-29T12:48:34.630Z,96577.81
2023-04-29T12:51:01.930Z,96578.50
2023-04-29T12:53:31.697Z,96579.59
2023-04-29T12:55:58.456Z,96574.56
2023-04-29T12:58:25.082Z,96577.91
2023-04-29T13:00:51.961Z,96583.00
2023-04-29T13:03:21.306Z,96583.94
2023-04-29T13:05:51.379Z,96569.53
2023-04-29T13:08:18.179Z,96573.94
2023-04-29T13:10:44.621Z,96583.66
2023-04-29T13:13:11.111Z,96582.06
2023-04-29T13:15:41.257Z,96581.25
2023-04-29T13:18:08.002Z,96576.88
2023-04-29T13:20:41.052Z,96581.13
2023-04-29T13:23:09.092Z,96580.38
2023-04-29T13:25:35.633Z,96575.06
2023-04-29T13:28:02.345Z,96571.47
2023-04-29T13:30:28.946Z,96577.59
2023-04-29T13:32:58.734Z,96575.91
2023-04-29T13:35:29.673Z,96574.41
2023-04-29T13:37:56.959Z,96579.47
2023-04-29T13:40:27.544Z,96577.16
2023-04-29T13:43:02.665Z,96575.09
2023-04-29T13:45:38.328Z,96575.03
2023-04-29T13:48:16.922Z,96572.16
2023-04-29T13:53:46.502Z,96570.19
2023-04-29T13:59:30.556Z,96578.97
2023-04-29T14:03:58.865Z,96577.91
2023-04-29T14:06:25.584Z,96581.72
2023-04-29T14:08:52.126Z,96572.03
2023-04-29T14:11:19.592Z,96575.47
2023-04-29T14:13:46.279Z,96578.81
2023-04-29T14:16:12.783Z,96576.50
2023-04-29T14:18:40.338Z,96580.69
2023-04-29T14:21:06.859Z,96579.03
2023-04-29T14:23:33.331Z,96585.25
2023-04-29T14:26:16.710Z,96582.66
2023-04-29T14:28:47.391Z,96594.31
2023-04-29T14:31:15.137Z,96599.50
2023-04-29T14:33:41.592Z,96593.34
2023-04-29T14:36:09.260Z,96596.81
2023-04-29T14:38:35.867Z,96593.31
2023-04-29T14:41:02.442Z,96599.16
2023-04-29T14:43:29.046Z,96599.13
2023-04-29T14:45:55.937Z,96606.25
2023-04-29T14:48:22.485Z,96602.09
2023-04-29T14:50:49.203Z,96607.22
2023-04-29T14:53:15.585Z,96602.56
2023-04-29T14:55:42.079Z,96597.28
2023-04-29T14:58:10.155Z,96604.19
2023-04-29T15:00:36.647Z,96609.41
2023-04-29T15:03:04.956Z,96614.31
2023-04-29T15:05:31.721Z,96616.94
2023-04-29T15:08:00.142Z,96621.53
2023-04-29T15:10:27.276Z,96615.38
2023-04-29T15:12:54.459Z,96615.31
2023-04-29T15:15:22.426Z,96623.88
2023-04-29T15:17:49.425Z,96616.56
2023-04-29T15:20:16.068Z,96624.91
2023-04-29T15:22:42.521Z,96627.09
2023-04-29T15:25:12.272Z,96640.06
2023-04-29T15:27:38.826Z,96629.84
2023-04-29T15:30:06.558Z,96631.03
2023-04-29T15:32:33.375Z,96645.25
2023-04-29T15:35:03.777Z,96644.69
2023-04-29T15:37:30.660Z,96643.22
2023-04-29T15:40:00.751Z,96646.66
2023-04-29T15:42:27.761Z,96644.25
2023-04-29T15:44:54.493Z,96650.28
2023-04-29T15:47:21.804Z,96649.59
2023-04-29T15:49:50.689Z,96650.69
2023-04-29T15:52:17.456Z,96651.72
2023-04-29T15:54:43.977Z,96661.03
2023-04-29T15:57:11.002Z,96656.72
2023-04-29T15:59:37.544Z,96659.47
2023-04-29T16:02:04.427Z,96667.06
2023-04-29T16:04:31.673Z,96662.13
2023-04-29T16:06:58.223Z,96667.44
2023-04-29T16:09:25.886Z,96668.47
2023-04-29T16:11:53.739Z,96679.63
2023-04-29T16:14:20.193Z,96675.34
2023-04-29T16:16:47.100Z,96681.56
2023-04-29T16:19:13.627Z,96685.16
2023-04-29T16:21:40.371Z,96680.81
2023-04-29T16:24:07.782Z,96678.09
2023-04-29T16:26:35.610Z,96682.41
2023-04-29T16:29:02.088Z,96690.97
2023-04-29T16:31:29.284Z,96699.66
2023-04-29T16:33:57.221Z,96693.72
2023-04-29T16:36:24.899Z,96704.81
2023-04-29T16:38:51.480Z,96699.78
2023-04-29T16:41:17.873Z,96706.59
2023-04-29T16:43:44.407Z,96711.69
2023-04-29T16:46:10.961Z,96710.84
2023-04-29T16:48:37.636Z,96710.00
2023-04-29T16:51:04.394Z,96715.28
2023-04-29T16:53:31.565Z,96717.88
2023-04-29T16:55:58.014Z,96719.59
2023-04-29T16:58:24.536Z,96713.78
2023-04-29T17:00:52.649Z,96720.59
2023-04-29T17:03:19.460Z,96724.91
2023-04-29T17:05:46.019Z,96726.63
2023-04-29T17:08:14.879Z,96734.34
2023-04-29T17:10:41.457Z,96730.06
2023-04-29T17:13:08.085Z,96727.56
2023-04-29T17:15:34.598Z,96726.81
2023-04-29T17:18:01.093Z,96732.81
2023-04-29T17:20:27.926Z,96732.06
2023-04-29T17:22:54.472Z,96732.19
2023-04-29T17:25:22.430Z,96739.94
2023-04-29T17:27:49.763Z,96743.47
2023-04-29T17:30:16.159Z,96744.50
2023-04-29T17:32:44.425Z,96744.47
2023-04-29T17:35:11.568Z,96748.78
2023-04-29T17:37:38.299Z,96742.06
2023-04-29T17:40:05.445Z,96745.50
2023-04-29T17:42:31.886Z,96750.69
2023-04-29T17:44:58.340Z,96755.84
2023-04-29T17:47:24.931Z,96748.19
2023-04-29T17:49:52.063Z,96754.19
2023-04-29T17:52:21.198Z,96753.41
2023-04-29T17:54:51.049Z,96759.50
2023-04-29T17:57:17.916Z,96760.31
2023-04-29T17:59:44.531Z,96758.66
2023-04-29T18:02:11.148Z,96771.56
2023-04-29T18:04:37.686Z,96765.59
2023-04-29T18:07:04.205Z,96769.03
2023-04-29T18:09:30.751Z,96773.28
2023-04-29T18:11:57.174Z,96788.81
2023-04-29T18:14:24.592Z,96778.63
2023-04-29T18:16:51.480Z,96779.53
2023-04-29T18:19:18.020Z,96788.16
2023-04-29T18:21:44.431Z,96786.50
2023-04-29T18:24:11.318Z,96791.59
2023-04-29T18:26:37.861Z,96798.50
2023-04-29T18:29:04.557Z,96802.81
2023-04-29T18:31:31.483Z,96801.09
2023-04-29T18:33:57.985Z,96805.44
2023-04-29T18:36:24.584Z,96804.63
2023-04-29T18:38:51.069Z,96798.63
2023-04-29T18:41:17.524Z,96803.78
2023-04-29T18:43:43.992Z,96810.63
2023-04-29T18:46:10.525Z,96807.25
2023-04-29T18:48:38.895Z,96815.00
2023-04-29T18:51:06.031Z,96818.44
2023-04-29T18:53:32.685Z,96820.97
2023-04-29T18:55:59.215Z,96825.28
2023-04-29T18:58:28.535Z,96832.16
2023-04-29T19:00:57.674Z,96832.16
2023-04-29T19:03:24.246Z,96832.19
2023-04-29T19:05:50.816Z,96836.44
2023-04-29T19:08:17.567Z,96839.88
2023-04-29T19:10:45.171Z,96846.72
2023-04-29T19:13:11.742Z,96839.00
2023-04-29T19:15:38.662Z,96838.16
2023-04-29T19:18:05.381Z,96845.91
2023-04-29T19:20:32.321Z,96845.03
2023-04-29T19:22:58.798Z,96845.88
2023-04-29T19:25:30.798Z,96859.59
2023-04-29T19:27:57.328Z,96852.72
2023-04-29T19:30:24.264Z,96857.88
2023-04-29T19:32:51.008Z,96858.75
2023-04-29T19:35:17.652Z,96862.16
2023-04-29T19:37:44.312Z,96865.59
2023-04-29T19:40:11.361Z,96857.03
2023-04-29T19:42:39.343Z,96866.47
2023-04-29T19:45:07.686Z,96856.19
2023-04-29T19:47:35.076Z,96862.16
2023-04-29T19:50:02.144Z,96864.75
2023-04-29T19:52:29.695Z,96864.75
2023-04-29T19:54:56.358Z,96875.88
2023-04-29T19:57:23.227Z,96870.72
2023-04-29T19:59:50.319Z,96866.47
2023-04-29T20:02:16.881Z,96861.31
2023-04-29T20:04:43.567Z,96874.16
2023-04-29T20:07:10.164Z,96881.03
2023-04-29T20:09:37.251Z,96881.03
2023-04-29T20:12:04.729Z,96879.31
2023-04-29T20:14:32.853Z,96880.16
2023-04-29T20:17:00.574Z,96873.31
2023-04-29T20:19:27.500Z,96885.28
2023-04-29T20:21:54.156Z,96884.44
2023-04-29T20:24:21.084Z,96876.75
2023-04-29T20:26:47.802Z,96878.44
2023-04-29T20:29:15.311Z,96876.72
2023-04-29T20:31:44.850Z,96881.84
2023-04-29T20:34:12.176Z,96890.41
2023-04-29T20:36:38.878Z,96889.56
2023-04-29T20:39:07.084Z,96884.41
2023-04-29T20:41:33.561Z,96897.22
2023-04-29T20:44:00.006Z,96883.56
2023-04-29T20:46:26.593Z,96888.69
2023-04-29T20:48:53.537Z,96888.69
2023-04-29T20:51:20.105Z,96894.66
2023-04-29T20:53:47.082Z,96905.78
2023-04-29T20:56:13.801Z,96900.66
2023-04-29T20:58:40.364Z,96902.34
2023-04-29T21:01:07.170Z,96904.91
2023-04-29T21:03:33.991Z,96892.06
2023-04-29T21:06:02.700Z,96898.91
2023-04-29T21:08:29.300Z,96903.19
2023-04-29T21:10:56.735Z,96903.16
2023-04-29T21:13:23.279Z,96910.00
2023-04-29T21:15:49.831Z,96908.28
2023-04-29T21:18:16.529Z,96907.41
2023-04-29T21:20:43.252Z,96910.00
2023-04-29T21:23:09.708Z,96911.69
2023-04-29T21:25:36.163Z,96915.94
2023-04-29T21:28:02.667Z,96915.94
2023-04-29T21:30:29.338Z,96921.09
2023-04-29T21:32:56.315Z,96914.22
2023-04-29T21:35:22.879Z,96924.47
2023-04-29T21:37:49.547Z,96920.16
2023-04-29T21:40:16.576Z,96927.03
2023-04-29T21:42:43.859Z,96923.59
2023-04-29T21:45:12.464Z,96935.56
2023-04-29T21:47:39.176Z,96934.69
2023-04-29T21:50:06.578Z,96933.84
2023-04-29T21:52:35.280Z,96925.28
2023-04-29T21:55:03.557Z,96934.69
2023-04-29T21:57:42.732Z,96936.38
2023-04-29T22:00:20.512Z,96933.81
2023-04-29T22:02:47.432Z,96925.28
2023-04-29T22:05:14.410Z,96932.97
2023-04-29T22:07:42.699Z,96938.91
2023-04-29T22:10:12.196Z,96931.22
2023-04-29T22:12:38.715Z,96935.50
2023-04-29T22:15:09.099Z,96938.03
2023-04-29T22:17:41.000Z,96932.91
2023-04-29T22:20:10.328Z,96932.91
2023-04-29T22:22:36.877Z,96936.31
2023-04-29T22:25:04.627Z,96938.84
2023-04-29T22:27:31.805Z,96942.22
2023-04-29T22:29:58.853Z,96941.38
2023-04-29T22:32:25.443Z,96942.22
2023-04-29T22:34:51.870Z,96943.03
2023-04-29T22:37:18.549Z,96954.13
2023-04-29T22:39:44.932Z,96949.00
2023-04-29T22:42:11.434Z,96942.16
2023-04-29T22:44:38.056Z,96944.69
2023-04-29T22:47:04.543Z,96937.75
2023-04-29T22:49:31.060Z,96950.63
2023-04-29T22:51:57.623Z,96948.06
2023-04-29T22:54:24.025Z,96952.34
2023-04-29T22:56:50.406Z,96956.56
2023-04-29T22:59:16.810Z,96960.81
2023-04-29T23:01:43.305Z,96951.44
2023-04-29T23:04:09.970Z,96955.69
2023-04-29T23:06:36.560Z,96951.41
2023-04-29T23:09:03.633Z,96953.97
2023-04-29T23:11:31.462Z,96951.41
2023-04-29T23:13:58.445Z,96953.00
2023-04-29T23:16:25.041Z,96962.41
2023-04-29T23:18:51.629Z,96964.94
2023-04-29T23:21:18.039Z,96966.69
2023-04-29T23:23:44.649Z,96967.56
2023-04-29T23:26:11.261Z,96962.44
2023-04-29T23:28:37.694Z,96964.94
2023-04-29T23:31:04.285Z,96965.81
2023-04-29T23:33:30.785Z,96970.97
2023-04-29T23:35:57.210Z,96963.16
2023-04-29T23:38:23.849Z,96964.06
2023-04-29T23:40:50.712Z,96964.06
2023-04-29T23:43:18.158Z,96968.31
2023-04-29T23:45:46.040Z,96965.72
2023-04-29T23:48:12.904Z,96967.47
2023-04-29T23:50:39.424Z,96967.44
2023-04-29T23:53:05.878Z,96969.13
2023-04-29T23:55:32.865Z,96964.88
2023-04-29T23:57:59.386Z,96969.16
